sensor_id;sensor_type;location;lat;lon;timestamp;temperature;humidity
36442;DHT22;73131;50.820;16.274;2023-12-20T00:00:40;6.20;99.90
36442;DHT22;73131;50.820;16.274;2023-12-20T00:04:08;6.30;99.90
36442;DHT22;73131;50.820;16.274;2023-12-20T00:07:08;6.40;99.90
36442;DHT22;73131;50.820;16.274;2023-12-20T00:10:12;6.40;99.90
36442;DHT22;73131;50.820;16.274;2023-12-20T00:13:13;6.40;99.90
36442;DHT22;73131;50.820;16.274;2023-12-20T00:16:18;6.50;99.90
36442;DHT22;73131;50.820;16.274;2023-12-20T00:19:21;6.50;99.90
36442;DHT22;73131;50.820;16.274;2023-12-20T00:22:22;6.60;99.90
36442;DHT22;73131;50.820;16.274;2023-12-20T00:25:24;6.60;99.90
36442;DHT22;73131;50.820;16.274;2023-12-20T00:28:25;6.50;99.90
36442;DHT22;73131;50.820;16.274;2023-12-20T00:31:28;6.50;99.90
36442;DHT22;73131;50.820;16.274;2023-12-20T00:34:29;6.50;99.90
36442;DHT22;73131;50.820;16.274;2023-12-20T00:37:30;6.50;99.90
36442;DHT22;73131;50.820;16.274;2023-12-20T00:40:34;6.40;99.90
36442;DHT22;73131;50.820;16.274;2023-12-20T00:43:37;6.30;99.90
36442;DHT22;73131;50.820;16.274;2023-12-20T00:46:41;6.20;99.90
36442;DHT22;73131;50.820;16.274;2023-12-20T00:49:41;6.20;99.90
36442;DHT22;73131;50.820;16.274;2023-12-20T00:52:43;6.10;99.90
36442;DHT22;73131;50.820;16.274;2023-12-20T00:55:44;6.10;99.90
36442;DHT22;73131;50.820;16.274;2023-12-20T00:58:45;6.10;99.90
36442;DHT22;73131;50.820;16.274;2023-12-20T01:01:49;6.00;99.90
36442;DHT22;73131;50.820;16.274;2023-12-20T01:04:50;6.00;99.90
36442;DHT22;73131;50.820;16.274;2023-12-20T01:07:50;6.10;99.90
36442;DHT22;73131;50.820;16.274;2023-12-20T01:10:52;6.00;99.90
36442;DHT22;73131;50.820;16.274;2023-12-20T01:13:57;6.00;99.90
36442;DHT22;73131;50.820;16.274;2023-12-20T01:17:02;6.00;99.90
36442;DHT22;73131;50.820;16.274;2023-12-20T01:20:03;6.00;99.90
36442;DHT22;73131;50.820;16.274;2023-12-20T01:23:07;6.00;99.90
36442;DHT22;73131;50.820;16.274;2023-12-20T01:26:07;6.00;99.90
36442;DHT22;73131;50.820;16.274;2023-12-20T01:29:09;6.10;99.90
36442;DHT22;73131;50.820;16.274;2023-12-20T01:32:10;6.00;99.90
36442;DHT22;73131;50.820;16.274;2023-12-20T01:35:11;5.90;99.90
36442;DHT22;73131;50.820;16.274;2023-12-20T01:38:13;6.00;99.90
36442;DHT22;73131;50.820;16.274;2023-12-20T01:41:17;6.00;99.90
36442;DHT22;73131;50.820;16.274;2023-12-20T01:44:17;6.00;99.90
36442;DHT22;73131;50.820;16.274;2023-12-20T01:47:19;6.10;99.90
36442;DHT22;73131;50.820;16.274;2023-12-20T01:50:20;6.00;99.90
36442;DHT22;73131;50.820;16.274;2023-12-20T01:53:25;6.00;99.90
36442;DHT22;73131;50.820;16.274;2023-12-20T01:56:30;6.00;99.90
36442;DHT22;73131;50.820;16.274;2023-12-20T01:59:35;5.90;99.90
36442;DHT22;73131;50.820;16.274;2023-12-20T02:02:40;5.90;99.90
36442;DHT22;73131;50.820;16.274;2023-12-20T02:05:41;5.90;99.90
36442;DHT22;73131;50.820;16.274;2023-12-20T02:08:42;5.80;99.90
36442;DHT22;73131;50.820;16.274;2023-12-20T02:11:43;5.90;99.90
36442;DHT22;73131;50.820;16.274;2023-12-20T02:14:46;5.90;99.90
36442;DHT22;73131;50.820;16.274;2023-12-20T02:17:49;5.90;99.90
36442;DHT22;73131;50.820;16.274;2023-12-20T02:20:50;5.90;99.90
36442;DHT22;73131;50.820;16.274;2023-12-20T02:23:54;5.80;99.90
36442;DHT22;73131;50.820;16.274;2023-12-20T02:26:55;5.80;99.90
36442;DHT22;73131;50.820;16.274;2023-12-20T02:29:56;5.80;99.90
36442;DHT22;73131;50.820;16.274;2023-12-20T02:33:00;5.70;99.90
36442;DHT22;73131;50.820;16.274;2023-12-20T02:36:04;5.70;99.90
36442;DHT22;73131;50.820;16.274;2023-12-20T02:39:05;5.70;99.90
36442;DHT22;73131;50.820;16.274;2023-12-20T02:42:06;5.70;99.90
36442;DHT22;73131;50.820;16.274;2023-12-20T02:45:07;5.70;99.90
36442;DHT22;73131;50.820;16.274;2023-12-20T02:48:11;5.70;99.90
36442;DHT22;73131;50.820;16.274;2023-12-20T02:51:15;5.70;99.90
36442;DHT22;73131;50.820;16.274;2023-12-20T02:54:21;5.70;99.90
36442;DHT22;73131;50.820;16.274;2023-12-20T02:57:25;5.70;99.90
36442;DHT22;73131;50.820;16.274;2023-12-20T03:00:26;5.60;99.90
36442;DHT22;73131;50.820;16.274;2023-12-20T03:03:27;5.60;99.90
36442;DHT22;73131;50.820;16.274;2023-12-20T03:06:31;5.60;99.90
36442;DHT22;73131;50.820;16.274;2023-12-20T03:09:32;5.60;99.90
36442;DHT22;73131;50.820;16.274;2023-12-20T03:12:33;5.60;99.90
36442;DHT22;73131;50.820;16.274;2023-12-20T03:15:34;5.60;99.90
36442;DHT22;73131;50.820;16.274;2023-12-20T03:18:35;5.60;99.90
36442;DHT22;73131;50.820;16.274;2023-12-20T03:21:38;5.60;99.90
36442;DHT22;73131;50.820;16.274;2023-12-20T03:24:42;5.50;99.90
36442;DHT22;73131;50.820;16.274;2023-12-20T03:27:47;5.50;99.90
36442;DHT22;73131;50.820;16.274;2023-12-20T03:30:52;5.50;99.90
36442;DHT22;73131;50.820;16.274;2023-12-20T03:33:56;5.50;99.90
36442;DHT22;73131;50.820;16.274;2023-12-20T03:36:57;5.50;99.90
36442;DHT22;73131;50.820;16.274;2023-12-20T03:40:00;5.40;99.90
36442;DHT22;73131;50.820;16.274;2023-12-20T03:43:01;5.40;99.90
36442;DHT22;73131;50.820;16.274;2023-12-20T03:46:05;5.30;99.90
36442;DHT22;73131;50.820;16.274;2023-12-20T03:49:08;5.30;99.90
36442;DHT22;73131;50.820;16.274;2023-12-20T03:52:11;5.30;99.90
36442;DHT22;73131;50.820;16.274;2023-12-20T03:55:15;5.30;99.90
36442;DHT22;73131;50.820;16.274;2023-12-20T03:58:16;5.30;99.90
36442;DHT22;73131;50.820;16.274;2023-12-20T04:01:17;5.30;99.90
36442;DHT22;73131;50.820;16.274;2023-12-20T04:04:20;5.30;99.90
36442;DHT22;73131;50.820;16.274;2023-12-20T04:07:21;5.30;99.90
36442;DHT22;73131;50.820;16.274;2023-12-20T04:10:25;5.30;99.90
36442;DHT22;73131;50.820;16.274;2023-12-20T04:13:29;5.30;99.90
36442;DHT22;73131;50.820;16.274;2023-12-20T04:16:30;5.40;99.90
36442;DHT22;73131;50.820;16.274;2023-12-20T04:19:32;5.40;99.90
36442;DHT22;73131;50.820;16.274;2023-12-20T04:22:35;5.40;99.90
36442;DHT22;73131;50.820;16.274;2023-12-20T04:25:36;5.40;99.90
36442;DHT22;73131;50.820;16.274;2023-12-20T04:28:37;5.40;99.90
36442;DHT22;73131;50.820;16.274;2023-12-20T04:31:38;5.30;99.90
36442;DHT22;73131;50.820;16.274;2023-12-20T04:34:39;5.30;99.90
36442;DHT22;73131;50.820;16.274;2023-12-20T04:37:47;5.30;99.90
36442;DHT22;73131;50.820;16.274;2023-12-20T04:40:52;5.30;99.90
36442;DHT22;73131;50.820;16.274;2023-12-20T04:43:55;5.30;99.90
36442;DHT22;73131;50.820;16.274;2023-12-20T04:46:59;5.20;99.90
36442;DHT22;73131;50.820;16.274;2023-12-20T04:50:00;5.20;99.90
36442;DHT22;73131;50.820;16.274;2023-12-20T04:53:05;5.20;99.90
36442;DHT22;73131;50.820;16.274;2023-12-20T04:56:06;5.20;99.90
36442;DHT22;73131;50.820;16.274;2023-12-20T04:59:07;5.20;99.90
36442;DHT22;73131;50.820;16.274;2023-12-20T05:02:08;5.20;99.90
36442;DHT22;73131;50.820;16.274;2023-12-20T05:05:09;5.20;99.90
36442;DHT22;73131;50.820;16.274;2023-12-20T05:08:13;5.20;99.90
36442;DHT22;73131;50.820;16.274;2023-12-20T05:11:13;5.10;99.90
36442;DHT22;73131;50.820;16.274;2023-12-20T05:14:22;5.10;99.90
36442;DHT22;73131;50.820;16.274;2023-12-20T05:17:23;5.00;99.90
36442;DHT22;73131;50.820;16.274;2023-12-20T05:20:27;5.10;99.90
36442;DHT22;73131;50.820;16.274;2023-12-20T05:23:30;5.20;99.90
36442;DHT22;73131;50.820;16.274;2023-12-20T05:26:31;5.10;99.90
36442;DHT22;73131;50.820;16.274;2023-12-20T05:29:34;5.10;99.90
36442;DHT22;73131;50.820;16.274;2023-12-20T05:32:37;5.10;99.90
36442;DHT22;73131;50.820;16.274;2023-12-20T05:35:40;5.00;99.90
36442;DHT22;73131;50.820;16.274;2023-12-20T05:38:41;5.00;99.90
36442;DHT22;73131;50.820;16.274;2023-12-20T05:41:43;5.00;99.90
36442;DHT22;73131;50.820;16.274;2023-12-20T05:44:44;5.00;99.90
36442;DHT22;73131;50.820;16.274;2023-12-20T05:47:47;5.00;99.90
36442;DHT22;73131;50.820;16.274;2023-12-20T05:50:48;5.00;99.90
36442;DHT22;73131;50.820;16.274;2023-12-20T05:53:54;5.00;99.90
36442;DHT22;73131;50.820;16.274;2023-12-20T05:56:55;5.00;99.90
36442;DHT22;73131;50.820;16.274;2023-12-20T05:59:58;5.00;99.90
36442;DHT22;73131;50.820;16.274;2023-12-20T06:03:02;5.00;99.90
36442;DHT22;73131;50.820;16.274;2023-12-20T06:06:09;4.90;99.90
36442;DHT22;73131;50.820;16.274;2023-12-20T06:09:13;4.90;99.90
36442;DHT22;73131;50.820;16.274;2023-12-20T06:12:16;4.80;99.90
36442;DHT22;73131;50.820;16.274;2023-12-20T06:15:20;4.80;99.90
36442;DHT22;73131;50.820;16.274;2023-12-20T06:18:23;4.90;99.90
36442;DHT22;73131;50.820;16.274;2023-12-20T06:21:25;4.90;99.90
36442;DHT22;73131;50.820;16.274;2023-12-20T06:24:28;4.90;99.90
36442;DHT22;73131;50.820;16.274;2023-12-20T06:27:30;4.90;99.90
36442;DHT22;73131;50.820;16.274;2023-12-20T06:30:35;4.90;99.90
36442;DHT22;73131;50.820;16.274;2023-12-20T06:33:39;4.90;99.90
36442;DHT22;73131;50.820;16.274;2023-12-20T06:36:41;4.90;99.90
36442;DHT22;73131;50.820;16.274;2023-12-20T06:39:43;4.90;99.90
36442;DHT22;73131;50.820;16.274;2023-12-20T06:42:44;4.90;99.90
36442;DHT22;73131;50.820;16.274;2023-12-20T06:45:45;4.90;99.90
36442;DHT22;73131;50.820;16.274;2023-12-20T06:48:46;4.90;99.90
36442;DHT22;73131;50.820;16.274;2023-12-20T06:51:49;4.80;99.90
36442;DHT22;73131;50.820;16.274;2023-12-20T06:54:50;4.80;99.90
36442;DHT22;73131;50.820;16.274;2023-12-20T06:57:51;4.80;99.90
36442;DHT22;73131;50.820;16.274;2023-12-20T07:00:52;4.80;99.90
36442;DHT22;73131;50.820;16.274;2023-12-20T07:03:53;4.80;99.90
36442;DHT22;73131;50.820;16.274;2023-12-20T07:06:54;4.70;99.90
36442;DHT22;73131;50.820;16.274;2023-12-20T07:10:01;4.70;99.90
36442;DHT22;73131;50.820;16.274;2023-12-20T07:13:04;4.80;99.90
36442;DHT22;73131;50.820;16.274;2023-12-20T07:16:08;4.80;99.90
36442;DHT22;73131;50.820;16.274;2023-12-20T07:19:11;4.80;99.90
36442;DHT22;73131;50.820;16.274;2023-12-20T07:22:14;4.80;99.90
36442;DHT22;73131;50.820;16.274;2023-12-20T07:25:18;4.80;99.90
36442;DHT22;73131;50.820;16.274;2023-12-20T07:28:21;4.80;99.90
36442;DHT22;73131;50.820;16.274;2023-12-20T07:31:22;4.80;99.90
36442;DHT22;73131;50.820;16.274;2023-12-20T07:34:28;4.90;99.90
36442;DHT22;73131;50.820;16.274;2023-12-20T07:37:30;5.00;99.90
36442;DHT22;73131;50.820;16.274;2023-12-20T07:40:31;5.10;99.90
36442;DHT22;73131;50.820;16.274;2023-12-20T07:43:33;5.00;99.90
36442;DHT22;73131;50.820;16.274;2023-12-20T07:46:37;4.90;99.90
36442;DHT22;73131;50.820;16.274;2023-12-20T07:49:38;4.90;99.90
36442;DHT22;73131;50.820;16.274;2023-12-20T07:52:39;4.90;99.90
36442;DHT22;73131;50.820;16.274;2023-12-20T07:55:40;4.90;99.90
36442;DHT22;73131;50.820;16.274;2023-12-20T07:58:44;4.90;99.90
36442;DHT22;73131;50.820;16.274;2023-12-20T08:01:45;4.90;99.90
36442;DHT22;73131;50.820;16.274;2023-12-20T08:04:48;4.90;99.90
36442;DHT22;73131;50.820;16.274;2023-12-20T08:07:49;4.90;99.90
36442;DHT22;73131;50.820;16.274;2023-12-20T08:10:50;4.90;99.90
36442;DHT22;73131;50.820;16.274;2023-12-20T08:13:51;4.90;99.90
36442;DHT22;73131;50.820;16.274;2023-12-20T08:16:52;5.00;99.90
36442;DHT22;73131;50.820;16.274;2023-12-20T08:19:53;5.00;99.90
36442;DHT22;73131;50.820;16.274;2023-12-20T08:22:54;5.00;99.90
36442;DHT22;73131;50.820;16.274;2023-12-20T08:25:55;5.00;99.90
36442;DHT22;73131;50.820;16.274;2023-12-20T08:28:56;5.00;99.90
36442;DHT22;73131;50.820;16.274;2023-12-20T08:31:57;5.10;99.90
36442;DHT22;73131;50.820;16.274;2023-12-20T08:35:01;5.10;99.90
36442;DHT22;73131;50.820;16.274;2023-12-20T08:38:02;5.10;99.90
36442;DHT22;73131;50.820;16.274;2023-12-20T08:41:08;5.10;99.90
36442;DHT22;73131;50.820;16.274;2023-12-20T08:44:16;5.10;99.90
36442;DHT22;73131;50.820;16.274;2023-12-20T08:47:17;5.20;99.90
36442;DHT22;73131;50.820;16.274;2023-12-20T08:50:20;5.20;99.90
36442;DHT22;73131;50.820;16.274;2023-12-20T08:53:21;5.30;99.90
36442;DHT22;73131;50.820;16.274;2023-12-20T08:56:22;5.30;99.90
36442;DHT22;73131;50.820;16.274;2023-12-20T08:59:23;5.40;99.90
36442;DHT22;73131;50.820;16.274;2023-12-20T09:02:27;5.50;99.90
36442;DHT22;73131;50.820;16.274;2023-12-20T09:05:28;5.60;99.90
36442;DHT22;73131;50.820;16.274;2023-12-20T09:08:31;5.70;99.90
36442;DHT22;73131;50.820;16.274;2023-12-20T09:11:32;5.70;99.90
36442;DHT22;73131;50.820;16.274;2023-12-20T09:14:36;5.80;99.90
36442;DHT22;73131;50.820;16.274;2023-12-20T09:17:37;5.80;99.90
36442;DHT22;73131;50.820;16.274;2023-12-20T09:20:42;5.80;99.90
36442;DHT22;73131;50.820;16.274;2023-12-20T09:23:44;5.80;99.90
36442;DHT22;73131;50.820;16.274;2023-12-20T09:26:44;5.80;99.90
36442;DHT22;73131;50.820;16.274;2023-12-20T09:29:50;5.80;99.90
36442;DHT22;73131;50.820;16.274;2023-12-20T09:32:54;5.90;99.90
36442;DHT22;73131;50.820;16.274;2023-12-20T09:35:57;5.90;99.90
36442;DHT22;73131;50.820;16.274;2023-12-20T09:39:00;6.00;99.90
36442;DHT22;73131;50.820;16.274;2023-12-20T09:42:03;6.00;99.90
36442;DHT22;73131;50.820;16.274;2023-12-20T09:45:09;6.00;99.90
36442;DHT22;73131;50.820;16.274;2023-12-20T09:48:11;6.00;99.90
36442;DHT22;73131;50.820;16.274;2023-12-20T09:51:15;6.10;99.90
36442;DHT22;73131;50.820;16.274;2023-12-20T09:54:19;6.10;99.90
36442;DHT22;73131;50.820;16.274;2023-12-20T09:57:25;6.10;99.90
36442;DHT22;73131;50.820;16.274;2023-12-20T10:00:27;6.10;99.90
36442;DHT22;73131;50.820;16.274;2023-12-20T10:03:27;6.00;99.90
36442;DHT22;73131;50.820;16.274;2023-12-20T10:06:29;6.00;99.90
36442;DHT22;73131;50.820;16.274;2023-12-20T10:09:31;6.00;99.90
36442;DHT22;73131;50.820;16.274;2023-12-20T10:12:33;6.10;99.90
36442;DHT22;73131;50.820;16.274;2023-12-20T10:15:35;6.10;99.90
36442;DHT22;73131;50.820;16.274;2023-12-20T10:18:41;6.20;99.90
36442;DHT22;73131;50.820;16.274;2023-12-20T10:21:42;6.30;99.90
36442;DHT22;73131;50.820;16.274;2023-12-20T10:24:43;6.40;99.90
36442;DHT22;73131;50.820;16.274;2023-12-20T10:27:44;6.40;99.90
36442;DHT22;73131;50.820;16.274;2023-12-20T10:30:47;6.40;99.90
36442;DHT22;73131;50.820;16.274;2023-12-20T10:33:51;6.30;99.90
36442;DHT22;73131;50.820;16.274;2023-12-20T10:36:52;6.30;99.90
36442;DHT22;73131;50.820;16.274;2023-12-20T10:39:55;6.20;99.90
36442;DHT22;73131;50.820;16.274;2023-12-20T10:42:58;6.20;99.90
36442;DHT22;73131;50.820;16.274;2023-12-20T10:46:00;6.10;99.90
36442;DHT22;73131;50.820;16.274;2023-12-20T10:49:07;6.10;99.90
36442;DHT22;73131;50.820;16.274;2023-12-20T10:52:14;6.10;99.90
36442;DHT22;73131;50.820;16.274;2023-12-20T10:55:20;6.10;99.90
36442;DHT22;73131;50.820;16.274;2023-12-20T10:58:21;6.30;99.90
36442;DHT22;73131;50.820;16.274;2023-12-20T11:01:25;7.20;99.90
36442;DHT22;73131;50.820;16.274;2023-12-20T11:04:40;10.90;99.90
36442;DHT22;73131;50.820;16.274;2023-12-20T11:08:12;16.20;99.90
36442;DHT22;73131;50.820;16.274;2023-12-20T11:11:29;20.10;91.90
36442;DHT22;73131;50.820;16.274;2023-12-20T11:17:47;18.90;72.80
36442;DHT22;73131;50.820;16.274;2023-12-20T11:21:04;15.60;80.70
36442;DHT22;73131;50.820;16.274;2023-12-20T11:24:05;12.80;91.00
36442;DHT22;73131;50.820;16.274;2023-12-20T11:27:08;11.40;96.30
36442;DHT22;73131;50.820;16.274;2023-12-20T11:30:10;10.50;99.90
36442;DHT22;73131;50.820;16.274;2023-12-20T11:33:14;9.80;99.90
36442;DHT22;73131;50.820;16.274;2023-12-20T11:36:18;8.80;99.90
36442;DHT22;73131;50.820;16.274;2023-12-20T11:39:21;8.50;99.90
36442;DHT22;73131;50.820;16.274;2023-12-20T11:42:22;8.60;99.90
36442;DHT22;73131;50.820;16.274;2023-12-20T11:45:24;8.30;99.90
36442;DHT22;73131;50.820;16.274;2023-12-20T11:48:26;8.20;99.90
36442;DHT22;73131;50.820;16.274;2023-12-20T11:51:30;8.20;99.90
36442;DHT22;73131;50.820;16.274;2023-12-20T11:54:31;7.90;99.90
36442;DHT22;73131;50.820;16.274;2023-12-20T11:57:35;7.60;99.90
36442;DHT22;73131;50.820;16.274;2023-12-20T12:00:36;7.20;99.90
36442;DHT22;73131;50.820;16.274;2023-12-20T12:03:39;7.20;99.90
36442;DHT22;73131;50.820;16.274;2023-12-20T12:06:41;7.20;99.90
36442;DHT22;73131;50.820;16.274;2023-12-20T12:09:43;7.30;99.90
36442;DHT22;73131;50.820;16.274;2023-12-20T12:12:44;7.40;99.90
36442;DHT22;73131;50.820;16.274;2023-12-20T12:15:45;7.30;99.90
36442;DHT22;73131;50.820;16.274;2023-12-20T12:18:55;7.30;99.90
36442;DHT22;73131;50.820;16.274;2023-12-20T12:22:09;7.10;99.90
36442;DHT22;73131;50.820;16.274;2023-12-20T12:25:23;6.90;99.90
36442;DHT22;73131;50.820;16.274;2023-12-20T12:28:26;6.80;99.90
36442;DHT22;73131;50.820;16.274;2023-12-20T12:31:28;6.80;99.90
36442;DHT22;73131;50.820;16.274;2023-12-20T12:34:33;6.90;99.90
36442;DHT22;73131;50.820;16.274;2023-12-20T12:37:40;6.90;99.90
36442;DHT22;73131;50.820;16.274;2023-12-20T12:40:43;7.00;99.90
36442;DHT22;73131;50.820;16.274;2023-12-20T12:43:44;7.10;99.90
36442;DHT22;73131;50.820;16.274;2023-12-20T12:46:46;7.10;99.90
36442;DHT22;73131;50.820;16.274;2023-12-20T12:49:49;7.10;99.90
36442;DHT22;73131;50.820;16.274;2023-12-20T12:52:52;6.90;99.90
36442;DHT22;73131;50.820;16.274;2023-12-20T12:55:53;6.80;99.90
36442;DHT22;73131;50.820;16.274;2023-12-20T12:58:57;6.80;99.90
36442;DHT22;73131;50.820;16.274;2023-12-20T13:02:01;6.70;99.90
36442;DHT22;73131;50.820;16.274;2023-12-20T13:05:05;6.70;99.90
36442;DHT22;73131;50.820;16.274;2023-12-20T13:08:09;6.70;99.90
36442;DHT22;73131;50.820;16.274;2023-12-20T13:11:15;6.70;99.90
36442;DHT22;73131;50.820;16.274;2023-12-20T13:14:18;6.70;99.90
36442;DHT22;73131;50.820;16.274;2023-12-20T13:17:21;6.60;99.90
36442;DHT22;73131;50.820;16.274;2023-12-20T13:20:25;6.50;99.90
36442;DHT22;73131;50.820;16.274;2023-12-20T13:23:26;6.40;99.90
36442;DHT22;73131;50.820;16.274;2023-12-20T13:26:30;6.40;99.90
36442;DHT22;73131;50.820;16.274;2023-12-20T13:29:31;6.30;99.90
36442;DHT22;73131;50.820;16.274;2023-12-20T13:32:31;6.20;99.90
36442;DHT22;73131;50.820;16.274;2023-12-20T13:35:36;6.10;99.90
36442;DHT22;73131;50.820;16.274;2023-12-20T13:38:37;6.10;99.90
36442;DHT22;73131;50.820;16.274;2023-12-20T13:41:38;6.10;99.90
36442;DHT22;73131;50.820;16.274;2023-12-20T13:44:41;6.10;99.90
36442;DHT22;73131;50.820;16.274;2023-12-20T13:47:43;6.10;99.90
36442;DHT22;73131;50.820;16.274;2023-12-20T13:50:46;6.00;99.90
36442;DHT22;73131;50.820;16.274;2023-12-20T13:53:49;5.90;99.90
36442;DHT22;73131;50.820;16.274;2023-12-20T13:56:50;5.90;99.90
36442;DHT22;73131;50.820;16.274;2023-12-20T13:59:57;5.80;99.90
36442;DHT22;73131;50.820;16.274;2023-12-20T14:02:58;5.70;99.90
36442;DHT22;73131;50.820;16.274;2023-12-20T14:06:00;5.60;99.90
36442;DHT22;73131;50.820;16.274;2023-12-20T14:09:04;5.50;99.90
36442;DHT22;73131;50.820;16.274;2023-12-20T14:12:05;5.50;99.90
36442;DHT22;73131;50.820;16.274;2023-12-20T14:15:07;5.50;99.90
36442;DHT22;73131;50.820;16.274;2023-12-20T14:18:11;5.40;99.90
36442;DHT22;73131;50.820;16.274;2023-12-20T14:21:15;5.40;99.90
36442;DHT22;73131;50.820;16.274;2023-12-20T14:24:17;5.40;99.90
36442;DHT22;73131;50.820;16.274;2023-12-20T14:27:17;5.40;99.90
36442;DHT22;73131;50.820;16.274;2023-12-20T14:30:23;5.40;99.90
36442;DHT22;73131;50.820;16.274;2023-12-20T14:33:27;5.40;99.90
36442;DHT22;73131;50.820;16.274;2023-12-20T14:36:30;5.40;99.90
36442;DHT22;73131;50.820;16.274;2023-12-20T14:39:33;5.30;99.90
36442;DHT22;73131;50.820;16.274;2023-12-20T14:42:34;5.20;99.90
36442;DHT22;73131;50.820;16.274;2023-12-20T14:45:37;5.10;99.90
36442;DHT22;73131;50.820;16.274;2023-12-20T14:48:41;5.10;99.90
36442;DHT22;73131;50.820;16.274;2023-12-20T14:51:46;5.00;99.90
36442;DHT22;73131;50.820;16.274;2023-12-20T14:54:51;5.00;99.90
36442;DHT22;73131;50.820;16.274;2023-12-20T14:57:56;5.00;99.90
36442;DHT22;73131;50.820;16.274;2023-12-20T15:00:58;5.00;99.90
36442;DHT22;73131;50.820;16.274;2023-12-20T15:03:59;4.90;99.90
36442;DHT22;73131;50.820;16.274;2023-12-20T15:07:03;5.00;99.90
36442;DHT22;73131;50.820;16.274;2023-12-20T15:10:07;5.00;99.90
36442;DHT22;73131;50.820;16.274;2023-12-20T15:13:08;5.10;99.90
36442;DHT22;73131;50.820;16.274;2023-12-20T15:16:09;5.20;99.90
36442;DHT22;73131;50.820;16.274;2023-12-20T15:19:15;5.20;99.90
36442;DHT22;73131;50.820;16.274;2023-12-20T15:22:16;5.30;99.90
36442;DHT22;73131;50.820;16.274;2023-12-20T15:25:20;5.30;99.90
36442;DHT22;73131;50.820;16.274;2023-12-20T15:28:23;5.40;99.90
36442;DHT22;73131;50.820;16.274;2023-12-20T15:31:27;5.30;99.90
36442;DHT22;73131;50.820;16.274;2023-12-20T15:34:34;5.40;99.90
36442;DHT22;73131;50.820;16.274;2023-12-20T15:37:38;5.40;99.90
36442;DHT22;73131;50.820;16.274;2023-12-20T15:40:42;5.50;99.90
36442;DHT22;73131;50.820;16.274;2023-12-20T15:43:45;5.50;99.90
36442;DHT22;73131;50.820;16.274;2023-12-20T15:46:46;5.50;99.90
36442;DHT22;73131;50.820;16.274;2023-12-20T15:49:49;5.50;99.90
36442;DHT22;73131;50.820;16.274;2023-12-20T15:52:50;5.50;99.90
36442;DHT22;73131;50.820;16.274;2023-12-20T15:55:51;5.50;99.90
36442;DHT22;73131;50.820;16.274;2023-12-20T15:58:52;5.50;99.90
36442;DHT22;73131;50.820;16.274;2023-12-20T16:02:00;5.50;99.90
36442;DHT22;73131;50.820;16.274;2023-12-20T16:05:06;5.50;99.90
36442;DHT22;73131;50.820;16.274;2023-12-20T16:08:09;5.50;99.90
36442;DHT22;73131;50.820;16.274;2023-12-20T16:11:10;5.60;99.90
36442;DHT22;73131;50.820;16.274;2023-12-20T16:14:14;5.60;99.90
36442;DHT22;73131;50.820;16.274;2023-12-20T16:17:18;5.60;99.90
36442;DHT22;73131;50.820;16.274;2023-12-20T16:20:19;5.60;99.90
36442;DHT22;73131;50.820;16.274;2023-12-20T16:23:20;5.60;99.90
36442;DHT22;73131;50.820;16.274;2023-12-20T16:26:23;5.70;99.90
36442;DHT22;73131;50.820;16.274;2023-12-20T16:29:24;5.70;99.90
36442;DHT22;73131;50.820;16.274;2023-12-20T16:32:27;5.70;99.90
36442;DHT22;73131;50.820;16.274;2023-12-20T16:35:28;5.70;99.90
36442;DHT22;73131;50.820;16.274;2023-12-20T16:38:32;5.70;99.90
36442;DHT22;73131;50.820;16.274;2023-12-20T16:41:35;5.70;99.90
36442;DHT22;73131;50.820;16.274;2023-12-20T16:44:36;5.70;99.90
36442;DHT22;73131;50.820;16.274;2023-12-20T16:47:39;5.70;99.90
36442;DHT22;73131;50.820;16.274;2023-12-20T16:50:46;5.70;99.90
36442;DHT22;73131;50.820;16.274;2023-12-20T16:53:49;5.70;99.90
36442;DHT22;73131;50.820;16.274;2023-12-20T16:56:53;5.70;99.90
36442;DHT22;73131;50.820;16.274;2023-12-20T16:59:56;5.60;99.90
36442;DHT22;73131;50.820;16.274;2023-12-20T17:02:57;5.60;99.90
36442;DHT22;73131;50.820;16.274;2023-12-20T17:06:01;5.60;99.90
36442;DHT22;73131;50.820;16.274;2023-12-20T17:09:07;5.60;99.90
36442;DHT22;73131;50.820;16.274;2023-12-20T17:12:10;5.50;99.90
36442;DHT22;73131;50.820;16.274;2023-12-20T17:15:14;5.50;99.90
36442;DHT22;73131;50.820;16.274;2023-12-20T17:18:17;5.50;99.90
36442;DHT22;73131;50.820;16.274;2023-12-20T17:21:19;5.50;99.90
36442;DHT22;73131;50.820;16.274;2023-12-20T17:24:20;5.50;99.90
36442;DHT22;73131;50.820;16.274;2023-12-20T17:27:24;5.50;99.90
36442;DHT22;73131;50.820;16.274;2023-12-20T17:30:29;5.50;99.90
36442;DHT22;73131;50.820;16.274;2023-12-20T17:33:33;5.50;99.90
36442;DHT22;73131;50.820;16.274;2023-12-20T17:36:40;5.40;99.90
36442;DHT22;73131;50.820;16.274;2023-12-20T17:39:42;5.40;99.90
36442;DHT22;73131;50.820;16.274;2023-12-20T17:42:46;5.30;99.90
36442;DHT22;73131;50.820;16.274;2023-12-20T17:45:48;5.20;99.90
36442;DHT22;73131;50.820;16.274;2023-12-20T17:48:50;5.20;99.90
36442;DHT22;73131;50.820;16.274;2023-12-20T17:51:51;5.30;99.90
36442;DHT22;73131;50.820;16.274;2023-12-20T17:54:56;5.30;99.90
36442;DHT22;73131;50.820;16.274;2023-12-20T17:57:58;5.40;99.90
36442;DHT22;73131;50.820;16.274;2023-12-20T18:01:01;5.50;99.90
36442;DHT22;73131;50.820;16.274;2023-12-20T18:04:05;5.50;99.90
36442;DHT22;73131;50.820;16.274;2023-12-20T18:07:08;5.60;99.90
36442;DHT22;73131;50.820;16.274;2023-12-20T18:10:14;5.60;99.90
36442;DHT22;73131;50.820;16.274;2023-12-20T18:13:15;5.60;99.90
36442;DHT22;73131;50.820;16.274;2023-12-20T18:16:16;5.60;99.90
36442;DHT22;73131;50.820;16.274;2023-12-20T18:19:20;5.50;99.90
36442;DHT22;73131;50.820;16.274;2023-12-20T18:22:21;5.50;99.90
36442;DHT22;73131;50.820;16.274;2023-12-20T18:25:26;5.40;99.90
36442;DHT22;73131;50.820;16.274;2023-12-20T18:28:28;5.40;99.90
36442;DHT22;73131;50.820;16.274;2023-12-20T18:31:31;5.40;99.90
36442;DHT22;73131;50.820;16.274;2023-12-20T18:34:35;5.40;99.90
36442;DHT22;73131;50.820;16.274;2023-12-20T18:37:36;5.40;99.90
36442;DHT22;73131;50.820;16.274;2023-12-20T18:40:39;5.30;99.90
36442;DHT22;73131;50.820;16.274;2023-12-20T18:43:47;5.30;99.90
36442;DHT22;73131;50.820;16.274;2023-12-20T18:46:48;5.20;99.90
36442;DHT22;73131;50.820;16.274;2023-12-20T18:49:49;5.20;99.90
36442;DHT22;73131;50.820;16.274;2023-12-20T18:52:50;5.10;99.90
36442;DHT22;73131;50.820;16.274;2023-12-20T18:55:51;5.20;99.90
36442;DHT22;73131;50.820;16.274;2023-12-20T18:58:54;5.10;99.90
36442;DHT22;73131;50.820;16.274;2023-12-20T19:01:58;5.10;99.90
36442;DHT22;73131;50.820;16.274;2023-12-20T19:05:01;5.20;99.90
36442;DHT22;73131;50.820;16.274;2023-12-20T19:08:09;5.20;99.90
36442;DHT22;73131;50.820;16.274;2023-12-20T19:11:11;5.20;99.90
36442;DHT22;73131;50.820;16.274;2023-12-20T19:14:17;5.20;99.90
36442;DHT22;73131;50.820;16.274;2023-12-20T19:17:21;5.20;99.90